sensor_id;sensor_type;location;lat;lon;timestamp;pressure;altitude;pressure_sealevel;temperature;humidity
13011;BME280;6786;57.632;11.962;2022-11-23T00:01:14;99930.31;;;19.95;38.58
13011;BME280;6786;57.632;11.962;2022-11-23T00:03:43;99919.91;;;19.92;38.56
13011;BME280;6786;57.632;11.962;2022-11-23T00:06:11;99926.94;;;19.93;38.64
13011;BME280;6786;57.632;11.962;2022-11-23T00:08:39;99916.84;;;19.87;38.83
13011;BME280;6786;57.632;11.962;2022-11-23T00:11:09;99916.19;;;19.93;38.71
13011;BME280;6786;57.632;11.962;2022-11-23T00:13:38;99928.59;;;19.94;38.65
13011;BME280;6786;57.632;11.962;2022-11-23T00:16:07;99891.63;;;19.72;38.60
13011;BME280;6786;57.632;11.962;2022-11-23T00:18:35;99917.06;;;19.94;38.76
13011;BME280;6786;57.632;11.962;2022-11-23T00:21:07;99915.50;;;19.91;38.72
13011;BME280;6786;57.632;11.962;2022-11-23T00:23:35;99925.91;;;19.94;38.67
13011;BME280;6786;57.632;11.962;2022-11-23T00:26:04;99926.94;;;19.93;38.79
13011;BME280;6786;57.632;11.962;2022-11-23T00:28:34;99918.88;;;19.93;38.62
13011;BME280;6786;57.632;11.962;2022-11-23T00:31:06;99926.94;;;19.93;38.73
13011;BME280;6786;57.632;11.962;2022-11-23T00:33:35;99930.47;;;19.94;38.61
13011;BME280;6786;57.632;11.962;2022-11-23T00:36:05;99932.28;;;19.93;38.78
13011;BME280;6786;57.632;11.962;2022-11-23T00:38:33;99932.28;;;19.93;38.83
13011;BME280;6786;57.632;11.962;2022-11-23T00:41:02;99921.56;;;19.93;38.70
13011;BME280;6786;57.632;11.962;2022-11-23T00:43:31;99926.94;;;19.93;38.72
13011;BME280;6786;57.632;11.962;2022-11-23T00:46:06;99926.94;;;19.93;38.82
13011;BME280;6786;57.632;11.962;2022-11-23T00:48:35;99925.25;;;19.92;38.76
13011;BME280;6786;57.632;11.962;2022-11-23T00:51:06;99923.56;;;19.91;38.64
13011;BME280;6786;57.632;11.962;2022-11-23T00:53:34;99923.56;;;19.91;38.76
13011;BME280;6786;57.632;11.962;2022-11-23T00:56:03;99874.19;;;19.68;38.70
13011;BME280;6786;57.632;11.962;2022-11-23T00:58:32;99912.81;;;19.91;38.47
13011;BME280;6786;57.632;11.962;2022-11-23T01:01:02;99903.81;;;19.92;38.65
13011;BME280;6786;57.632;11.962;2022-11-23T01:03:32;99914.53;;;19.92;38.84
13011;BME280;6786;57.632;11.962;2022-11-23T01:06:02;99922.56;;;19.92;38.66
13011;BME280;6786;57.632;11.962;2022-11-23T01:08:31;99926.06;;;19.93;38.67
13011;BME280;6786;57.632;11.962;2022-11-23T01:11:00;99926.94;;;19.93;38.73
13011;BME280;6786;57.632;11.962;2022-11-23T01:13:28;99932.28;;;19.93;38.71
13011;BME280;6786;57.632;11.962;2022-11-23T01:15:57;99934.97;;;19.93;38.77
13011;BME280;6786;57.632;11.962;2022-11-23T01:18:25;99934.97;;;19.93;38.81
13011;BME280;6786;57.632;11.962;2022-11-23T01:20:55;99935.97;;;19.92;38.67
13011;BME280;6786;57.632;11.962;2022-11-23T01:23:23;99941.34;;;19.92;38.59
13011;BME280;6786;57.632;11.962;2022-11-23T01:25:51;99939.97;;;19.88;38.76
13011;BME280;6786;57.632;11.962;2022-11-23T01:28:23;99941.34;;;19.92;38.71
13011;BME280;6786;57.632;11.962;2022-11-23T01:30:50;99935.97;;;19.92;38.65
13011;BME280;6786;57.632;11.962;2022-11-23T01:33:18;99939.47;;;19.93;38.70
13011;BME280;6786;57.632;11.962;2022-11-23T01:35:46;99942.16;;;19.93;38.81
13011;BME280;6786;57.632;11.962;2022-11-23T01:38:16;99938.66;;;19.92;38.91
13011;BME280;6786;57.632;11.962;2022-11-23T01:40:44;99941.34;;;19.92;38.85
13011;BME280;6786;57.632;11.962;2022-11-23T01:43:14;99941.34;;;19.92;38.79
13011;BME280;6786;57.632;11.962;2022-11-23T01:45:43;99933.25;;;19.84;38.71
13011;BME280;6786;57.632;11.962;2022-11-23T01:48:25;99943.00;;;19.93;38.77
13011;BME280;6786;57.632;11.962;2022-11-23T01:50:55;99925.91;;;19.86;38.63
13011;BME280;6786;57.632;11.962;2022-11-23T01:53:27;99935.13;;;19.92;38.81
13011;BME280;6786;57.632;11.962;2022-11-23T01:55:59;99927.94;;;19.92;38.82
13011;BME280;6786;57.632;11.962;2022-11-23T01:58:30;99923.56;;;19.91;38.74
13011;BME280;6786;57.632;11.962;2022-11-23T02:01:02;99912.81;;;19.91;38.79
13011;BME280;6786;57.632;11.962;2022-11-23T02:03:31;99910.16;;;19.91;38.84
13011;BME280;6786;57.632;11.962;2022-11-23T02:06:01;99902.09;;;19.91;38.83
13011;BME280;6786;57.632;11.962;2022-11-23T02:08:32;99903.97;;;19.91;38.73
13011;BME280;6786;57.632;11.962;2022-11-23T02:11:00;99902.09;;;19.91;38.88
13011;BME280;6786;57.632;11.962;2022-11-23T02:13:28;99896.72;;;19.91;38.79
13011;BME280;6786;57.632;11.962;2022-11-23T02:15:57;99903.81;;;19.92;38.73
13011;BME280;6786;57.632;11.962;2022-11-23T02:18:30;99893.06;;;19.92;38.91
13011;BME280;6786;57.632;11.962;2022-11-23T02:20:59;99893.06;;;19.92;38.78
13011;BME280;6786;57.632;11.962;2022-11-23T02:23:36;99891.38;;;19.91;38.74
13011;BME280;6786;57.632;11.962;2022-11-23T02:26:12;99882.13;;;19.86;38.94
13011;BME280;6786;57.632;11.962;2022-11-23T02:28:44;99896.72;;;19.91;38.72
13011;BME280;6786;57.632;11.962;2022-11-23T02:31:13;99901.13;;;19.92;38.79
13011;BME280;6786;57.632;11.962;2022-11-23T02:33:41;99886.00;;;19.91;38.83
13011;BME280;6786;57.632;11.962;2022-11-23T02:36:33;99899.41;;;19.91;38.77
13011;BME280;6786;57.632;11.962;2022-11-23T02:39:06;99898.44;;;19.92;38.89
13011;BME280;6786;57.632;11.962;2022-11-23T02:41:37;99898.75;;;19.89;38.86
13011;BME280;6786;57.632;11.962;2022-11-23T02:44:10;99893.06;;;19.92;38.91
13011;BME280;6786;57.632;11.962;2022-11-23T02:46:41;99900.28;;;19.92;38.74
13011;BME280;6786;57.632;11.962;2022-11-23T02:49:09;99902.09;;;19.91;38.87
13011;BME280;6786;57.632;11.962;2022-11-23T02:51:37;99891.38;;;19.91;38.88
13011;BME280;6786;57.632;11.962;2022-11-23T02:54:06;99884.34;;;19.90;38.80
13011;BME280;6786;57.632;11.962;2022-11-23T02:56:34;99876.97;;;19.92;38.80
13011;BME280;6786;57.632;11.962;2022-11-23T02:59:03;99887.72;;;19.92;38.95
13011;BME280;6786;57.632;11.962;2022-11-23T03:01:32;99882.34;;;19.92;38.85
13011;BME280;6786;57.632;11.962;2022-11-23T03:04:00;99877.16;;;19.91;38.89
13011;BME280;6786;57.632;11.962;2022-11-23T03:06:28;99888.69;;;19.91;38.97
13011;BME280;6786;57.632;11.962;2022-11-23T03:08:56;99887.72;;;19.92;38.79
13011;BME280;6786;57.632;11.962;2022-11-23T03:11:24;99876.97;;;19.92;38.86
13011;BME280;6786;57.632;11.962;2022-11-23T03:13:52;99878.66;;;19.93;38.78
13011;BME280;6786;57.632;11.962;2022-11-23T03:16:21;99871.78;;;19.91;38.82
13011;BME280;6786;57.632;11.962;2022-11-23T03:18:49;99880.66;;;19.91;38.85
13011;BME280;6786;57.632;11.962;2022-11-23T03:21:17;99885.03;;;19.92;38.87
13011;BME280;6786;57.632;11.962;2022-11-23T03:23:46;99882.34;;;19.92;38.82
13011;BME280;6786;57.632;11.962;2022-11-23T03:26:14;99881.34;;;19.93;38.95
13011;BME280;6786;57.632;11.962;2022-11-23T03:28:42;99881.34;;;19.93;38.79
13011;BME280;6786;57.632;11.962;2022-11-23T03:31:09;99880.66;;;19.91;38.72
13011;BME280;6786;57.632;11.962;2022-11-23T03:33:39;99886.69;;;19.93;38.87
13011;BME280;6786;57.632;11.962;2022-11-23T03:36:07;99896.41;;;19.94;38.88
13011;BME280;6786;57.632;11.962;2022-11-23T03:38:35;99890.41;;;19.92;38.82
13011;BME280;6786;57.632;11.962;2022-11-23T03:41:03;99889.38;;;19.93;38.81
13011;BME280;6786;57.632;11.962;2022-11-23T03:43:31;99889.38;;;19.93;38.79
13011;BME280;6786;57.632;11.962;2022-11-23T03:45:59;99894.75;;;19.93;38.78
13011;BME280;6786;57.632;11.962;2022-11-23T03:48:27;99883.16;;;19.93;38.96
13011;BME280;6786;57.632;11.962;2022-11-23T03:50:57;99886.53;;;19.95;38.87
13011;BME280;6786;57.632;11.962;2022-11-23T03:53:24;99889.38;;;19.93;38.86
13011;BME280;6786;57.632;11.962;2022-11-23T03:55:52;99889.38;;;19.93;38.94
13011;BME280;6786;57.632;11.962;2022-11-23T03:58:23;99890.22;;;19.94;38.78
13011;BME280;6786;57.632;11.962;2022-11-23T04:00:51;99886.69;;;19.93;38.85
13011;BME280;6786;57.632;11.962;2022-11-23T04:03:19;99880.66;;;19.91;38.79
13011;BME280;6786;57.632;11.962;2022-11-23T04:05:47;99876.97;;;19.92;38.98
13011;BME280;6786;57.632;11.962;2022-11-23T04:08:16;99882.34;;;19.92;38.91
13011;BME280;6786;57.632;11.962;2022-11-23T04:10:44;99878.66;;;19.93;38.76
13011;BME280;6786;57.632;11.962;2022-11-23T04:13:12;99881.34;;;19.93;38.85
13011;BME280;6786;57.632;11.962;2022-11-23T04:15:40;99889.38;;;19.93;38.84
13011;BME280;6786;57.632;11.962;2022-11-23T04:18:10;99883.16;;;19.93;38.85
13011;BME280;6786;57.632;11.962;2022-11-23T04:20:38;99886.00;;;19.91;38.81
13011;BME280;6786;57.632;11.962;2022-11-23T04:23:06;99882.34;;;19.92;38.74
13011;BME280;6786;57.632;11.962;2022-11-23T04:25:40;99889.38;;;19.93;38.93
13011;BME280;6786;57.632;11.962;2022-11-23T04:28:08;99886.69;;;19.93;38.76
13011;BME280;6786;57.632;11.962;2022-11-23T04:30:36;99886.69;;;19.93;38.96
13011;BME280;6786;57.632;11.962;2022-11-23T04:33:04;99889.38;;;19.93;38.88
13011;BME280;6786;57.632;11.962;2022-11-23T04:35:32;99894.75;;;19.93;38.78
13011;BME280;6786;57.632;11.962;2022-11-23T04:38:00;99896.72;;;19.91;38.88
13011;BME280;6786;57.632;11.962;2022-11-23T04:40:28;99894.75;;;19.93;38.87
13011;BME280;6786;57.632;11.962;2022-11-23T04:42:58;99888.38;;;19.94;38.94
13011;BME280;6786;57.632;11.962;2022-11-23T04:45:27;99889.38;;;19.93;38.98
13011;BME280;6786;57.632;11.962;2022-11-23T04:47:55;99884.00;;;19.93;39.05
13011;BME280;6786;57.632;11.962;2022-11-23T04:50:23;99879.28;;;19.87;38.82
13011;BME280;6786;57.632;11.962;2022-11-23T04:52:51;99880.66;;;19.91;39.02
13011;BME280;6786;57.632;11.962;2022-11-23T04:55:19;99887.72;;;19.92;38.85
13011;BME280;6786;57.632;11.962;2022-11-23T04:57:47;99882.34;;;19.92;38.93
13011;BME280;6786;57.632;11.962;2022-11-23T05:00:17;99884.00;;;19.93;38.87
13011;BME280;6786;57.632;11.962;2022-11-23T05:02:45;99884.00;;;19.93;38.98
13011;BME280;6786;57.632;11.962;2022-11-23T05:05:13;99880.31;;;19.94;38.88
13011;BME280;6786;57.632;11.962;2022-11-23T05:07:41;99871.63;;;19.92;38.82
13011;BME280;6786;57.632;11.962;2022-11-23T05:10:09;99874.97;;;19.94;38.80
13011;BME280;6786;57.632;11.962;2022-11-23T05:12:37;99869.59;;;19.94;38.85
13011;BME280;6786;57.632;11.962;2022-11-23T05:15:05;99869.59;;;19.94;38.92
13011;BME280;6786;57.632;11.962;2022-11-23T05:17:35;99873.28;;;19.93;39.00
13011;BME280;6786;57.632;11.962;2022-11-23T05:20:04;99867.94;;;19.93;38.85
13011;BME280;6786;57.632;11.962;2022-11-23T05:22:32;99865.25;;;19.93;38.96
13011;BME280;6786;57.632;11.962;2022-11-23T05:25:00;99861.88;;;19.91;39.04
13011;BME280;6786;57.632;11.962;2022-11-23T05:27:28;99869.91;;;19.91;38.92
13011;BME280;6786;57.632;11.962;2022-11-23T05:29:56;99867.94;;;19.93;38.99
13011;BME280;6786;57.632;11.962;2022-11-23T05:32:24;99867.94;;;19.93;39.04
13011;BME280;6786;57.632;11.962;2022-11-23T05:34:53;99867.94;;;19.93;38.90
13011;BME280;6786;57.632;11.962;2022-11-23T05:37:21;99864.56;;;19.91;39.04
13011;BME280;6786;57.632;11.962;2022-11-23T05:39:49;99869.59;;;19.94;38.94
13011;BME280;6786;57.632;11.962;2022-11-23T05:42:17;99880.31;;;19.94;38.92
13011;BME280;6786;57.632;11.962;2022-11-23T05:44:45;99874.97;;;19.94;38.98
13011;BME280;6786;57.632;11.962;2022-11-23T05:47:13;99871.28;;;19.95;38.85
13011;BME280;6786;57.632;11.962;2022-11-23T05:49:41;99873.13;;;19.95;39.04
13011;BME280;6786;57.632;11.962;2022-11-23T05:52:11;99880.31;;;19.94;39.14
13011;BME280;6786;57.632;11.962;2022-11-23T05:54:39;99874.97;;;19.94;39.02
13011;BME280;6786;57.632;11.962;2022-11-23T05:57:07;99872.28;;;19.94;39.04
13011;BME280;6786;57.632;11.962;2022-11-23T05:59:35;99871.28;;;19.95;39.02
13011;BME280;6786;57.632;11.962;2022-11-23T06:02:03;99874.97;;;19.94;39.01
13011;BME280;6786;57.632;11.962;2022-11-23T06:04:31;99872.28;;;19.94;39.01
13011;BME280;6786;57.632;11.962;2022-11-23T06:06:59;99882.03;;;19.95;39.16
13011;BME280;6786;57.632;11.962;2022-11-23T06:09:28;99862.34;;;19.87;39.14
13011;BME280;6786;57.632;11.962;2022-11-23T06:11:58;99886.06;;;19.99;39.27
13011;BME280;6786;57.632;11.962;2022-11-23T06:14:26;99890.41;;;20.00;39.18
13011;BME280;6786;57.632;11.962;2022-11-23T06:16:54;99888.41;;;20.02;39.44
13011;BME280;6786;57.632;11.962;2022-11-23T06:19:21;99891.78;;;20.04;39.45
13011;BME280;6786;57.632;11.962;2022-11-23T06:21:49;99888.09;;;20.05;39.43
13011;BME280;6786;57.632;11.962;2022-11-23T06:24:18;99889.75;;;20.06;39.41
13011;BME280;6786;57.632;11.962;2022-11-23T06:26:47;99878.38;;;20.04;39.40
13011;BME280;6786;57.632;11.962;2022-11-23T06:29:15;99893.13;;;20.08;39.62
13011;BME280;6786;57.632;11.962;2022-11-23T06:31:43;99889.44;;;20.09;39.74
13011;BME280;6786;57.632;11.962;2022-11-23T06:34:11;99899.16;;;20.10;39.59
13011;BME280;6786;57.632;11.962;2022-11-23T06:36:39;99894.81;;;20.09;39.65
13011;BME280;6786;57.632;11.962;2022-11-23T06:39:08;99899.88;;;20.12;39.72
13011;BME280;6786;57.632;11.962;2022-11-23T06:41:37;99905.25;;;20.12;39.78
13011;BME280;6786;57.632;11.962;2022-11-23T06:44:06;99906.91;;;20.13;39.67
13011;BME280;6786;57.632;11.962;2022-11-23T06:46:34;99903.25;;;20.14;39.79
13011;BME280;6786;57.632;11.962;2022-11-23T06:49:02;99903.25;;;20.14;39.73
13011;BME280;6786;57.632;11.962;2022-11-23T06:51:30;99905.78;;;20.16;39.71
13011;BME280;6786;57.632;11.962;2022-11-23T06:53:58;99909.97;;;20.18;39.85
13011;BME280;6786;57.632;11.962;2022-11-23T06:56:26;99907.28;;;20.18;39.79
13011;BME280;6786;57.632;11.962;2022-11-23T06:58:54;99909.97;;;20.18;39.80
13011;BME280;6786;57.632;11.962;2022-11-23T07:01:23;99910.81;;;20.19;39.84
13011;BME280;6786;57.632;11.962;2022-11-23T07:03:52;99909.97;;;20.18;39.88
13011;BME280;6786;57.632;11.962;2022-11-23T07:06:20;99913.50;;;20.19;39.88
13011;BME280;6786;57.632;11.962;2022-11-23T07:08:48;99920.69;;;20.18;39.98
13011;BME280;6786;57.632;11.962;2022-11-23T07:11:16;99916.03;;;20.20;39.81
13011;BME280;6786;57.632;11.962;2022-11-23T07:13:44;99912.50;;;20.20;39.91
13011;BME280;6786;57.632;11.962;2022-11-23T07:16:13;99914.16;;;20.21;39.85
13011;BME280;6786;57.632;11.962;2022-11-23T07:18:43;99918.69;;;20.20;39.80
13011;BME280;6786;57.632;11.962;2022-11-23T07:21:11;99919.53;;;20.21;39.79
13011;BME280;6786;57.632;11.962;2022-11-23T07:23:39;99917.53;;;20.23;39.96
13011;BME280;6786;57.632;11.962;2022-11-23T07:26:07;99913.00;;;20.23;39.86
13011;BME280;6786;57.632;11.962;2022-11-23T07:28:35;99917.53;;;20.23;39.91
13011;BME280;6786;57.632;11.962;2022-11-23T07:31:04;99911.31;;;20.22;39.99
13011;BME280;6786;57.632;11.962;2022-11-23T07:33:32;99912.16;;;20.23;40.02
13011;BME280;6786;57.632;11.962;2022-11-23T07:36:01;99918.38;;;20.23;39.88
13011;BME280;6786;57.632;11.962;2022-11-23T07:38:29;99922.03;;;20.22;40.03
13011;BME280;6786;57.632;11.962;2022-11-23T07:40:57;99919.19;;;20.24;39.99
13011;BME280;6786;57.632;11.962;2022-11-23T07:43:27;99913.34;;;20.20;40.00
13011;BME280;6786;57.632;11.962;2022-11-23T07:45:55;99926.44;;;20.23;39.93
13011;BME280;6786;57.632;11.962;2022-11-23T07:48:23;99927.41;;;20.22;39.85
13011;BME280;6786;57.632;11.962;2022-11-23T07:50:52;99920.38;;;20.21;39.71
13011;BME280;6786;57.632;11.962;2022-11-23T07:53:21;99927.41;;;20.22;39.70
13011;BME280;6786;57.632;11.962;2022-11-23T07:55:54;99922.03;;;20.22;39.79
13011;BME280;6786;57.632;11.962;2022-11-23T07:58:22;99914.69;;;20.24;39.93
13011;BME280;6786;57.632;11.962;2022-11-23T08:00:50;99921.72;;;20.25;39.89
13011;BME280;6786;57.632;11.962;2022-11-23T08:03:19;99922.56;;;20.26;40.05
13011;BME280;6786;57.632;11.962;2022-11-23T08:05:56;99927.09;;;20.25;39.86
13011;BME280;6786;57.632;11.962;2022-11-23T08:08:25;99923.44;;;20.26;39.89
13011;BME280;6786;57.632;11.962;2022-11-23T08:10:53;99925.41;;;20.24;40.02
13011;BME280;6786;57.632;11.962;2022-11-23T08:13:21;99927.09;;;20.25;39.85
13011;BME280;6786;57.632;11.962;2022-11-23T08:15:49;99935.81;;;20.27;40.04
13011;BME280;6786;57.632;11.962;2022-11-23T08:18:21;99926.28;;;20.25;39.87
13011;BME280;6786;57.632;11.962;2022-11-23T08:20:50;99923.44;;;20.26;40.01
13011;BME280;6786;57.632;11.962;2022-11-23T08:23:18;99928.78;;;20.26;39.77
13011;BME280;6786;57.632;11.962;2022-11-23T08:25:47;99925.94;;;20.28;39.90
13011;BME280;6786;57.632;11.962;2022-11-23T08:28:15;99924.09;;;20.28;40.02
13011;BME280;6786;57.632;11.962;2022-11-23T08:30:44;99925.94;;;20.28;39.95
13011;BME280;6786;57.632;11.962;2022-11-23T08:33:12;99920.06;;;20.24;39.84
13011;BME280;6786;57.632;11.962;2022-11-23T08:35:41;99922.25;;;20.29;40.02
13011;BME280;6786;57.632;11.962;2022-11-23T08:38:09;99919.41;;;20.30;40.02
13011;BME280;6786;57.632;11.962;2022-11-23T08:40:38;99920.06;;;20.24;40.00
13011;BME280;6786;57.632;11.962;2022-11-23T08:43:07;99917.72;;;20.29;39.99
13011;BME280;6786;57.632;11.962;2022-11-23T08:45:35;99919.72;;;20.27;40.03
13011;BME280;6786;57.632;11.962;2022-11-23T08:48:04;99910.66;;;20.28;40.12
13011;BME280;6786;57.632;11.962;2022-11-23T08:50:32;99897.25;;;20.20;40.06
13011;BME280;6786;57.632;11.962;2022-11-23T08:53:01;99903.94;;;20.24;40.06
13011;BME280;6786;57.632;11.962;2022-11-23T08:55:29;99911.69;;;20.27;40.13
13011;BME280;6786;57.632;11.962;2022-11-23T08:57:57;99909.84;;;20.28;40.36
13011;BME280;6786;57.632;11.962;2022-11-23T09:00:27;99903.94;;;20.24;40.07
13011;BME280;6786;57.632;11.962;2022-11-23T09:02:55;99905.28;;;20.28;40.13
13011;BME280;6786;57.632;11.962;2022-11-23T09:05:24;99896.28;;;20.29;40.20
13011;BME280;6786;57.632;11.962;2022-11-23T09:07:53;99907.00;;;20.29;40.23
13011;BME280;6786;57.632;11.962;2022-11-23T09:10:21;99908.66;;;20.30;40.20
13011;BME280;6786;57.632;11.962;2022-11-23T09:12:49;99907.00;;;20.29;40.08
13011;BME280;6786;57.632;11.962;2022-11-23T09:15:17;99904.97;;;20.31;40.06
13011;BME280;6786;57.632;11.962;2022-11-23T09:17:47;99906.16;;;20.29;40.16
13011;BME280;6786;57.632;11.962;2022-11-23T09:20:15;99915.72;;;20.31;40.05
13011;BME280;6786;57.632;11.962;2022-11-23T09:22:43;99909.31;;;20.24;40.20
13011;BME280;6786;57.632;11.962;2022-11-23T09:25:16;99919.41;;;20.30;39.96
13011;BME280;6786;57.632;11.962;2022-11-23T09:27:44;99908.66;;;20.30;40.09
13011;BME280;6786;57.632;11.962;2022-11-23T09:30:13;99908.66;;;20.30;40.13
13011;BME280;6786;57.632;11.962;2022-11-23T09:32:42;99908.66;;;20.30;40.07
13011;BME280;6786;57.632;11.962;2022-11-23T09:35:11;99901.63;;;20.29;40.11
13011;BME280;6786;57.632;11.962;2022-11-23T09:37:39;99901.97;;;20.26;40.05
13011;BME280;6786;57.632;11.962;2022-11-23T09:40:09;99911.34;;;20.30;40.09
13011;BME280;6786;57.632;11.962;2022-11-23T09:42:51;99921.06;;;20.31;40.13
13011;BME280;6786;57.632;11.962;2022-11-23T09:45:29;99915.72;;;20.31;40.04
13011;BME280;6786;57.632;11.962;2022-11-23T09:48:22;99915.72;;;20.31;40.41
13011;BME280;6786;57.632;11.962;2022-11-23T09:50:58;99919.41;;;20.30;40.13
13011;BME280;6786;57.632;11.962;2022-11-23T09:53:31;99916.72;;;20.30;40.13
13011;BME280;6786;57.632;11.962;2022-11-23T09:56:00;99914.03;;;20.30;40.09
13011;BME280;6786;57.632;11.962;2022-11-23T09:58:31;99914.03;;;20.30;40.03
13011;BME280;6786;57.632;11.962;2022-11-23T10:01:03;99921.06;;;20.31;40.06
13011;BME280;6786;57.632;11.962;2022-11-23T10:03:36;99923.75;;;20.31;39.99
13011;BME280;6786;57.632;11.962;2022-11-23T10:06:18;99921.06;;;20.31;40.03
13011;BME280;6786;57.632;11.962;2022-11-23T10:08:56;99910.34;;;20.31;40.02
13011;BME280;6786;57.632;11.962;2022-11-23T10:11:59;99907.97;;;20.28;40.33
13011;BME280;6786;57.632;11.962;2022-11-23T10:14:44;99915.72;;;20.31;40.03
13011;BME280;6786;57.632;11.962;2022-11-23T10:17:22;99915.72;;;20.31;40.11
13011;BME280;6786;57.632;11.962;2022-11-23T10:20:03;99915.72;;;20.31;40.20
13011;BME280;6786;57.632;11.962;2022-11-23T10:22:41;99917.41;;;20.32;40.18
13011;BME280;6786;57.632;11.962;2022-11-23T10:25:16;99917.72;;;20.29;40.25
13011;BME280;6786;57.632;11.962;2022-11-23T10:27:46;99919.41;;;20.30;40.08
13011;BME280;6786;57.632;11.962;2022-11-23T10:30:17;99921.06;;;20.31;40.18
13011;BME280;6786;57.632;11.962;2022-11-23T10:32:49;99922.78;;;20.32;40.25
13011;BME280;6786;57.632;11.962;2022-11-23T10:35:24;99922.78;;;20.32;40.14
13011;BME280;6786;57.632;11.962;2022-11-23T10:38:08;99922.78;;;20.32;40.19
13011;BME280;6786;57.632;11.962;2022-11-23T10:40:52;99921.06;;;20.31;40.10
13011;BME280;6786;57.632;11.962;2022-11-23T10:43:27;99916.72;;;20.30;40.07
13011;BME280;6786;57.632;11.962;2022-11-23T10:46:29;99914.03;;;20.30;40.10
13011;BME280;6786;57.632;11.962;2022-11-23T10:49:09;99919.72;;;20.27;40.25
13011;BME280;6786;57.632;11.962;2022-11-23T10:51:48;99895.44;;;20.03;40.12
13011;BME280;6786;57.632;11.962;2022-11-23T10:54:21;99921.72;;;20.25;39.98
13011;BME280;6786;57.632;11.962;2022-11-23T10:56:51;99929.13;;;20.23;39.83
13011;BME280;6786;57.632;11.962;2022-11-23T10:59:29;99927.72;;;20.19;39.80
13011;BME280;6786;57.632;11.962;2022-11-23T11:02:08;99927.41;;;20.22;39.80
13011;BME280;6786;57.632;11.962;2022-11-23T11:04:37;99918.69;;;20.20;39.80
13011;BME280;6786;57.632;11.962;2022-11-23T11:07:11;99918.69;;;20.20;39.85
13011;BME280;6786;57.632;11.962;2022-11-23T11:09:49;99921.56;;;20.19;39.74
13011;BME280;6786;57.632;11.962;2022-11-23T11:12:18;99920.69;;;20.18;39.83
13011;BME280;6786;57.632;11.962;2022-11-23T11:14:58;99920.69;;;20.18;39.77
13011;BME280;6786;57.632;11.962;2022-11-23T11:17:37;99919.03;;;20.17;39.77
13011;BME280;6786;57.632;11.962;2022-11-23T11:20:27;99916.19;;;20.19;40.06
13011;BME280;6786;57.632;11.962;2022-11-23T11:22:58;99920.69;;;20.18;39.88
13011;BME280;6786;57.632;11.962;2022-11-23T11:25:30;99919.53;;;20.21;39.98
13011;BME280;6786;57.632;11.962;2022-11-23T11:27:59;99921.38;;;20.20;39.92
13011;BME280;6786;57.632;11.962;2022-11-23T11:30:35;99909.63;;;20.21;39.99
13011;BME280;6786;57.632;11.962;2022-11-23T11:33:12;99885.41;;;20.05;40.11
13011;BME280;6786;57.632;11.962;2022-11-23T11:35:43;99907.50;;;20.25;39.95
13011;BME280;6786;57.632;11.962;2022-11-23T11:38:18;99917.72;;;20.29;39.95
13011;BME280;6786;57.632;11.962;2022-11-23T11:40:50;99923.44;;;20.26;39.90
13011;BME280;6786;57.632;11.962;2022-11-23T11:43:21;99928.47;;;20.29;39.83
13011;BME280;6786;57.632;11.962;2022-11-23T11:46:03;99928.16;;;20.32;40.01
13011;BME280;6786;57.632;11.962;2022-11-23T11:48:55;99922.78;;;20.32;39.82
13011;BME280;6786;57.632;11.962;2022-11-23T11:51:28;99912.03;;;20.32;40.00
13011;BME280;6786;57.632;11.962;2022-11-23T11:54:02;99908.34;;;20.33;39.96
13011;BME280;6786;57.632;11.962;2022-11-23T11:56:37;99915.38;;;20.34;40.01
13011;BME280;6786;57.632;11.962;2022-11-23T11:59:16;99915.38;;;20.34;40.12
13011;BME280;6786;57.632;11.962;2022-11-23T12:01:53;99906.34;;;20.35;40.00
13011;BME280;6786;57.632;11.962;2022-11-23T12:04:29;99917.41;;;20.32;40.08
13011;BME280;6786;57.632;11.962;2022-11-23T12:07:04;99926.44;;;20.31;40.10
13011;BME280;6786;57.632;11.962;2022-11-23T12:09:38;99928.47;;;20.29;40.09
13011;BME280;6786;57.632;11.962;2022-11-23T12:12:14;99914.03;;;20.30;40.03
13011;BME280;6786;57.632;11.962;2022-11-23T12:14:44;99916.72;;;20.30;40.11
13011;BME280;6786;57.632;11.962;2022-11-23T12:17:31;99919.41;;;20.30;40.41
13011;BME280;6786;57.632;11.962;2022-11-23T12:20:10;99919.41;;;20.30;40.16
13011;BME280;6786;57.632;11.962;2022-11-23T12:22:51;99934.31;;;20.33;40.13
13011;BME280;6786;57.632;11.962;2022-11-23T12:25:28;99936.84;;;20.34;40.11
13011;BME280;6786;57.632;11.962;2022-11-23T12:28:12;99944.25;;;20.32;40.21
13011;BME280;6786;57.632;11.962;2022-11-23T12:30:51;99942.22;;;20.34;40.22
13011;BME280;6786;57.632;11.962;2022-11-23T12:33:41;99936.84;;;20.34;40.21
13011;BME280;6786;57.632;11.962;2022-11-23T12:36:32;99937.50;;;20.28;40.41
13011;BME280;6786;57.632;11.962;2022-11-23T12:39:08;99935.81;;;20.27;40.26
13011;BME280;6786;57.632;11.962;2022-11-23T12:41:46;99942.03;;;20.28;40.30
13011;BME280;6786;57.632;11.962;2022-11-23T12:44:38;99944.88;;;20.26;40.42
13011;BME280;6786;57.632;11.962;2022-11-23T12:47:19;99943.19;;;20.25;40.28
13011;BME280;6786;57.632;11.962;2022-11-23T12:49:54;99944.88;;;20.26;40.16
13011;BME280;6786;57.632;11.962;2022-11-23T12:52:35;99941.19;;;20.27;40.31
13011;BME280;6786;57.632;11.962;2022-11-23T12:55:17;99942.22;;;20.26;40.28
13011;BME280;6786;57.632;11.962;2022-11-23T12:57:52;99934.16;;;20.26;40.25
13011;BME280;6786;57.632;11.962;2022-11-23T13:00:24;99941.19;;;20.27;40.36
13011;BME280;6786;57.632;11.962;2022-11-23T13:03:25;99935.81;;;20.27;40.46
13011;BME280;6786;57.632;11.962;2022-11-23T13:06:20;99941.19;;;20.27;40.38
13011;BME280;6786;57.632;11.962;2022-11-23T13:09:27;99941.19;;;20.27;40.65
13011;BME280;6786;57.632;11.962;2022-11-23T13:12:20;99932.44;;;20.25;40.59
13011;BME280;6786;57.632;11.962;2022-11-23T13:14:59;99931.31;;;20.28;40.36
13011;BME280;6786;57.632;11.962;2022-11-23T13:17:39;99936.69;;;20.28;40.23
13011;BME280;6786;57.632;11.962;2022-11-23T13:20:20;99934.16;;;20.26;40.24
13011;BME280;6786;57.632;11.962;2022-11-23T13:22:54;99938.34;;;20.29;40.41